createdAt,value
2023-02-27T00:01:03.362Z,93442.38
2023-02-27T00:06:13.546Z,93449.31
2023-02-27T00:11:21.265Z,93457.92
2023-02-27T00:16:28.126Z,93465.84
2023-02-27T00:21:37.144Z,93468.64
2023-02-27T00:26:44.213Z,93471.27
2023-02-27T00:31:51.349Z,93480.66
2023-02-27T00:36:58.477Z,93488.88
2023-02-27T00:42:05.307Z,93511.66
2023-02-27T00:47:12.176Z,93481.41
2023-02-27T00:52:19.434Z,93484.82
2023-02-27T00:57:26.914Z,93493.22
2023-02-27T01:02:34.562Z,93489.04
2023-02-27T01:07:41.456Z,93498.33
2023-02-27T01:12:49.669Z,93489.32
2023-02-27T01:17:56.859Z,93482.52
2023-02-27T01:23:03.578Z,93488.94
2023-02-27T01:28:10.538Z,93481.03
2023-02-27T01:33:17.756Z,93485.05
2023-02-27T01:38:24.563Z,93484.20
2023-02-27T01:43:31.938Z,93479.17
2023-02-27T01:48:41.263Z,93473.17
2023-02-27T01:53:52.843Z,93477.37
2023-02-27T01:59:07.753Z,93476.25
2023-02-27T02:04:34.162Z,93481.88
2023-02-27T02:09:54.744Z,93481.30
2023-02-27T02:15:01.647Z,93484.36
2023-02-27T02:20:36.613Z,93486.58
2023-02-27T02:25:50.893Z,93491.87
2023-02-27T02:31:29.494Z,93498.08
2023-02-27T02:37:11.835Z,93502.73
2023-02-27T02:42:25.787Z,93500.70
2023-02-27T02:47:53.227Z,93508.05
2023-02-27T02:53:37.183Z,93514.08
2023-02-27T02:59:06.377Z,93512.09
2023-02-27T03:04:35.215Z,93516.89
2023-02-27T03:09:46.385Z,93515.44
2023-02-27T03:15:21.619Z,93521.87
2023-02-27T03:20:35.806Z,93529.37
2023-02-27T03:25:45.148Z,93535.95
2023-02-27T03:31:08.986Z,93538.86
2023-02-27T03:36:34.053Z,93538.16
2023-02-27T03:42:06.004Z,93544.06
2023-02-27T03:47:12.708Z,93544.75
2023-02-27T03:52:21.947Z,93544.30
2023-02-27T03:57:29.890Z,93555.61
2023-02-27T04:02:38.517Z,93554.25
2023-02-27T04:08:18.668Z,93556.33
2023-02-27T04:14:09.102Z,93561.72
2023-02-27T04:19:38.368Z,93564.51
2023-02-27T04:24:55.071Z,93570.39
2023-02-27T04:30:27.531Z,93576.53
2023-02-27T04:35:55.951Z,93579.09
2023-02-27T04:41:15.580Z,93585.59
2023-02-27T04:46:27.024Z,93578.43
2023-02-27T04:51:52.241Z,93581.89
2023-02-27T04:57:03.537Z,93587.21
2023-02-27T05:02:26.254Z,93585.55
2023-02-27T05:07:40.982Z,93588.98
2023-02-27T05:12:54.925Z,93592.80
2023-02-27T05:18:11.337Z,93599.98
2023-02-27T05:23:41.946Z,93604.66
2023-02-27T05:29:12.605Z,93599.97
2023-02-27T05:34:23.829Z,93611.48
2023-02-27T05:39:33.904Z,93614.61
2023-02-27T05:44:44.391Z,93622.55
2023-02-27T05:50:13.759Z,93619.05
2023-02-27T05:55:28.424Z,93624.89
2023-02-27T06:00:45.556Z,93623.84
2023-02-27T06:05:55.896Z,93633.16
2023-02-27T06:11:03.493Z,93463.18
2023-02-27T06:16:14.306Z,93658.03
2023-02-27T06:21:21.335Z,93674.22
2023-02-27T06:26:28.644Z,93681.23
2023-02-27T06:31:37.741Z,93682.70
2023-02-27T06:36:45.144Z,93683.84
2023-02-27T06:41:51.902Z,93687.91
2023-02-27T06:46:58.970Z,93690.56
2023-02-27T06:52:06.128Z,93693.82
2023-02-27T06:57:13.113Z,93697.30
2023-02-27T07:02:20.712Z,93695.95
2023-02-27T07:07:35.891Z,93709.14
2023-02-27T07:12:36.329Z,93704.42
2023-02-27T07:17:43.009Z,93705.16
2023-02-27T07:22:49.961Z,93704.27
2023-02-27T07:27:56.777Z,93707.23
2023-02-27T07:33:04.582Z,93705.87
2023-02-27T07:38:11.533Z,93701.84
2023-02-27T07:43:18.693Z,93706.02
2023-02-27T07:48:25.400Z,93707.81
2023-02-27T07:53:32.321Z,93703.33
2023-02-27T07:58:39.230Z,93699.55
2023-02-27T08:03:46.088Z,93702.56
2023-02-27T08:08:53.826Z,93706.11
2023-02-27T08:14:02.092Z,93716.09
2023-02-27T08:19:09.552Z,93709.66
2023-02-27T08:24:16.462Z,93703.95
2023-02-27T08:29:23.349Z,93715.33
2023-02-27T08:34:30.889Z,93711.56
2023-02-27T08:39:37.932Z,93709.48
2023-02-27T08:44:44.940Z,93717.10
2023-02-27T08:49:51.717Z,93710.03
2023-02-27T08:54:59.111Z,93716.74
2023-02-27T09:00:08.005Z,93715.73
2023-02-27T09:05:16.246Z,93718.23
2023-02-27T09:10:23.315Z,93725.72
2023-02-27T09:15:32.848Z,93719.05
2023-02-27T09:20:41.122Z,93721.03
2023-02-27T09:25:48.858Z,93725.53
2023-02-27T09:30:55.847Z,93733.09
2023-02-27T09:36:03.303Z,93734.58
2023-02-27T09:41:20.647Z,93732.58
2023-02-27T09:46:27.809Z,93732.80
2023-02-27T09:51:35.180Z,93732.47
2023-02-27T09:56:56.073Z,93733.60
2023-02-27T10:02:31.089Z,93728.13
2023-02-27T10:07:42.368Z,93732.56
2023-02-27T10:13:22.149Z,93732.42
2023-02-27T10:18:35.881Z,93726.46
2023-02-27T10:23:47.027Z,93730.47
2023-02-27T10:28:54.264Z,93738.89
2023-02-27T10:34:03.505Z,93739.78
2023-02-27T10:39:14.223Z,93737.05
2023-02-27T10:44:20.978Z,93735.75
2023-02-27T10:49:30.382Z,93742.78
2023-02-27T10:54:37.628Z,93747.88
2023-02-27T10:59:44.921Z,93739.77
2023-02-27T11:04:55.611Z,93746.15
2023-02-27T11:10:21.799Z,93732.58
2023-02-27T11:15:32.911Z,93728.21
2023-02-27T11:20:43.905Z,93728.78
2023-02-27T11:25:51.352Z,93725.97
2023-02-27T11:31:20.664Z,93724.08
2023-02-27T11:36:47.638Z,93717.71
2023-02-27T11:41:55.908Z,93717.38
2023-02-27T11:47:18.996Z,93713.05
2023-02-27T11:53:02.895Z,93708.68
2023-02-27T11:58:22.550Z,93722.98
2023-02-27T12:04:03.825Z,93707.25
2023-02-27T12:09:26.717Z,93702.48
2023-02-27T12:14:56.020Z,93694.47
2023-02-27T12:20:31.516Z,93701.36
2023-02-27T12:25:48.796Z,93709.07
2023-02-27T12:31:32.887Z,93715.00
2023-02-27T12:36:40.003Z,93712.86
2023-02-27T12:42:40.758Z,93725.70
2023-02-27T12:47:54.854Z,93716.49
2023-02-27T12:53:28.310Z,93710.65
2023-02-27T12:59:09.483Z,93718.14
2023-02-27T13:04:47.254Z,93709.97
2023-02-27T13:10:03.977Z,93722.36
2023-02-27T13:15:26.482Z,93725.63
2023-02-27T13:20:44.678Z,93734.86
2023-02-27T13:25:54.266Z,93731.95
2023-02-27T13:31:17.481Z,93732.72
2023-02-27T13:36:31.520Z,93736.32
2023-02-27T13:41:40.742Z,93733.39
2023-02-27T13:46:48.082Z,93729.80
2023-02-27T13:51:58.392Z,93728.38
2023-02-27T13:57:12.361Z,93733.11
2023-02-27T14:02:41.965Z,93735.97
2023-02-27T14:08:11.041Z,93735.78
2023-02-27T14:19:27.728Z,93741.67
2023-02-27T14:25:04.915Z,93737.94
2023-02-27T14:30:28.376Z,93739.20
2023-02-27T14:35:36.132Z,93740.97
2023-02-27T14:40:59.045Z,93744.97
2023-02-27T14:46:19.334Z,93741.20
2023-02-27T14:51:27.834Z,93749.44
2023-02-27T14:56:35.881Z,93753.91
2023-02-27T15:01:43.243Z,93758.14
2023-02-27T15:06:53.914Z,93762.69
2023-02-27T15:12:04.245Z,93767.47
2023-02-27T15:17:25.498Z,93777.09
2023-02-27T15:22:39.546Z,93776.98
2023-02-27T15:27:45.004Z,93787.15
2023-02-27T15:32:54.781Z,93795.86
2023-02-27T15:38:02.912Z,93796.85
2023-02-27T15:43:11.351Z,93799.98
2023-02-27T15:48:19.698Z,93799.28
2023-02-27T15:53:30.413Z,93806.11
2023-02-27T15:58:41.021Z,93809.52
2023-02-27T16:03:54.931Z,93812.28
2023-02-27T16:09:02.984Z,93824.36
2023-02-27T16:14:28.400Z,93836.31
2023-02-27T16:19:35.756Z,93840.81
2023-02-27T16:24:42.675Z,93846.14
2023-02-27T16:29:50.384Z,93858.77
2023-02-27T16:35:07.056Z,93868.30
2023-02-27T16:40:17.684Z,93876.56
2023-02-27T16:45:29.263Z,93875.39
2023-02-27T16:50:43.371Z,93882.11
2023-02-27T16:55:50.193Z,93890.70
2023-02-27T17:00:57.101Z,93911.00
2023-02-27T17:06:04.168Z,93909.08
2023-02-27T17:11:12.398Z,93912.95
2023-02-27T17:16:19.223Z,93925.58
2023-02-27T17:21:27.778Z,93936.41
2023-02-27T17:26:35.994Z,93945.56
2023-02-27T17:31:43.372Z,93951.39
2023-02-27T17:36:51.814Z,93957.27
2023-02-27T17:41:58.552Z,93967.70
2023-02-27T17:47:05.947Z,93979.37
2023-02-27T17:52:12.826Z,93986.27
2023-02-27T17:57:19.706Z,93990.13
2023-02-27T18:02:26.382Z,93999.27
2023-02-27T18:07:35.373Z,94006.32
2023-02-27T18:12:42.283Z,94008.56
2023-02-27T18:17:49.162Z,94012.86
2023-02-27T18:22:56.104Z,94015.19
2023-02-27T18:28:03.133Z,94017.53
2023-02-27T18:33:10.908Z,94024.08
2023-02-27T18:38:17.852Z,94032.40
2023-02-27T18:43:24.662Z,94027.70
2023-02-27T18:48:31.852Z,94036.34
2023-02-27T18:53:39.983Z,94033.11
2023-02-27T18:58:46.925Z,94038.20
2023-02-27T19:03:55.777Z,94037.31
2023-02-27T19:09:02.816Z,94043.05
2023-02-27T19:14:12.611Z,94045.59
2023-02-27T19:19:20.719Z,94049.31
2023-02-27T19:24:27.697Z,94056.63
2023-02-27T19:29:34.806Z,94084.77
2023-02-27T19:34:43.147Z,94072.02
2023-02-27T19:39:51.587Z,94075.11
2023-02-27T19:44:59.113Z,94075.30
2023-02-27T19:50:07.360Z,94079.87
2023-02-27T19:55:14.174Z,94074.19
2023-02-27T20:00:22.335Z,94077.20
2023-02-27T20:05:29.309Z,94084.53
2023-02-27T20:10:36.001Z,94088.32
2023-02-27T20:15:42.974Z,94088.72
2023-02-27T20:20:52.798Z,94098.98
2023-02-27T20:26:00.036Z,94091.97
2023-02-27T20:31:13.140Z,94099.41
2023-02-27T20:36:20.394Z,94102.30
2023-02-27T20:41:29.776Z,94096.92
2023-02-27T20:46:39.605Z,94103.67
2023-02-27T20:51:47.492Z,94109.17
2023-02-27T20:56:55.070Z,94106.20
2023-02-27T21:02:03.337Z,94129.83
2023-02-27T21:07:15.464Z,94102.99
2023-02-27T21:12:22.107Z,94115.09
2023-02-27T21:17:29.330Z,94114.12
2023-02-27T21:22:36.734Z,94116.45
2023-02-27T21:27:43.662Z,94115.73
2023-02-27T21:32:50.523Z,94117.47
2023-02-27T21:37:57.451Z,94113.69
2023-02-27T21:43:04.245Z,94115.30
2023-02-27T21:48:12.125Z,94120.08
2023-02-27T21:53:18.898Z,94122.58
2023-02-27T21:58:26.937Z,94131.01
2023-02-27T22:03:36.939Z,94123.29
2023-02-27T22:08:45.198Z,94119.45
2023-02-27T22:13:51.998Z,94123.35
2023-02-27T22:18:59.066Z,94126.63
2023-02-27T22:24:06.520Z,94125.42
2023-02-27T22:29:13.849Z,94125.65
2023-02-27T22:34:21.167Z,94126.17
2023-02-27T22:39:28.153Z,94133.36
2023-02-27T22:44:35.130Z,94122.73
2023-02-27T22:49:41.911Z,94121.22
2023-02-27T22:54:50.554Z,94120.69
2023-02-27T22:59:57.809Z,94137.27
2023-02-27T23:10:17.887Z,94134.81
2023-02-27T23:15:24.757Z,94141.14
2023-02-27T23:20:31.720Z,94139.09
2023-02-27T23:25:39.749Z,94137.47
2023-02-27T23:30:46.684Z,94149.91
2023-02-27T23:35:53.445Z,94144.22
2023-02-27T23:41:02.163Z,94174.55
2023-02-27T23:46:12.101Z,94152.10
2023-02-27T23:51:18.941Z,94148.28
2023-02-27T23:56:30.897Z,94147.98
